createdAt,value
2022-09-28T00:01:52.035Z,0.80
2022-09-28T00:04:14.654Z,0.60
2022-09-28T00:06:38.095Z,0.80
2022-09-28T00:09:01.881Z,0.90
2022-09-28T00:11:28.124Z,0.90
2022-09-28T00:13:52.934Z,0.90
2022-09-28T00:16:19.634Z,1.02
2022-09-28T00:18:42.779Z,1.00
2022-09-28T00:21:13.915Z,0.90
2022-09-28T00:23:57.739Z,1.10
2022-09-28T00:26:20.357Z,0.90
2022-09-28T00:28:42.983Z,0.82
2022-09-28T00:31:05.742Z,0.73
2022-09-28T00:33:28.333Z,1.00
2022-09-28T00:35:58.143Z,0.80
2022-09-28T00:38:20.685Z,1.00
2022-09-28T00:40:43.495Z,1.10
2022-09-28T00:43:22.759Z,0.80
2022-09-28T00:45:48.406Z,0.90
2022-09-28T00:48:11.824Z,0.67
2022-09-28T00:50:36.984Z,0.70
2022-09-28T00:53:11.460Z,0.60
2022-09-28T00:55:40.479Z,0.70
2022-09-28T00:58:05.341Z,0.80
2022-09-28T01:00:28.406Z,0.83
2022-09-28T01:02:51.450Z,0.68
2022-09-28T01:05:14.840Z,0.90
2022-09-28T01:07:38.980Z,0.82
2022-09-28T01:10:01.843Z,1.15
2022-09-28T01:12:25.184Z,0.90
2022-09-28T01:14:48.995Z,0.85
2022-09-28T01:17:25.816Z,0.73
2022-09-28T01:20:14.415Z,0.90
2022-09-28T01:23:13.027Z,0.98
2022-09-28T01:25:55.142Z,1.10
2022-09-28T01:28:20.733Z,1.02
2022-09-28T01:30:55.559Z,1.20
2022-09-28T01:33:26.720Z,1.00
2022-09-28T01:36:06.193Z,1.17
2022-09-28T01:38:41.007Z,0.97
2022-09-28T01:41:06.471Z,1.40
2022-09-28T01:43:32.424Z,0.90
2022-09-28T01:46:05.006Z,0.90
2022-09-28T01:48:41.133Z,0.98
2022-09-28T01:51:08.440Z,1.10
2022-09-28T01:53:46.252Z,0.80
2022-09-28T01:56:17.880Z,0.85
2022-09-28T01:58:46.802Z,0.88
2022-09-28T02:01:19.415Z,0.85
2022-09-28T02:03:50.752Z,0.97
2022-09-28T02:06:19.052Z,1.10
2022-09-28T02:09:07.260Z,0.90
2022-09-28T02:11:40.392Z,1.00
2022-09-28T02:14:09.801Z,1.00
2022-09-28T02:16:39.433Z,0.77
2022-09-28T02:19:03.333Z,0.90
2022-09-28T02:21:47.593Z,0.80
2022-09-28T02:24:20.649Z,0.77
2022-09-28T02:26:47.899Z,1.00
2022-09-28T02:29:10.667Z,0.80
2022-09-28T02:31:33.480Z,0.90
2022-09-28T02:33:58.059Z,1.08
2022-09-28T02:36:20.891Z,0.80
2022-09-28T02:38:43.408Z,1.00
2022-09-28T02:41:32.334Z,0.90
2022-09-28T02:43:58.292Z,0.60
2022-09-28T02:46:42.844Z,0.70
2022-09-28T02:49:21.881Z,0.80
2022-09-28T02:52:04.865Z,0.73
2022-09-28T02:54:59.696Z,0.70
2022-09-28T02:58:00.844Z,0.80
2022-09-28T03:00:24.216Z,0.93
2022-09-28T03:03:09.267Z,0.70
2022-09-28T03:05:47.743Z,0.93
2022-09-28T03:08:45.258Z,1.00
2022-09-28T03:11:16.709Z,0.80
2022-09-28T03:13:43.126Z,1.10
2022-09-28T03:16:14.840Z,0.70
2022-09-28T03:18:39.818Z,0.77
2022-09-28T03:21:04.445Z,0.90
2022-09-28T03:23:27.094Z,1.00
2022-09-28T03:25:49.550Z,0.90
2022-09-28T03:28:12.373Z,0.90
2022-09-28T03:30:36.651Z,0.80
2022-09-28T03:33:00.438Z,0.90
2022-09-28T03:35:25.620Z,0.90
2022-09-28T03:37:48.371Z,0.90
2022-09-28T03:40:10.976Z,1.17
2022-09-28T03:42:36.091Z,1.08
2022-09-28T03:44:58.701Z,0.80
2022-09-28T03:47:21.484Z,0.77
2022-09-28T03:49:45.668Z,0.75
2022-09-28T03:52:08.327Z,0.65
2022-09-28T03:54:30.815Z,0.73
2022-09-28T03:56:53.764Z,0.63
2022-09-28T03:59:16.656Z,0.50
2022-09-28T04:01:40.269Z,0.75
2022-09-28T04:04:03.202Z,0.40
2022-09-28T04:06:26.801Z,0.50
2022-09-28T04:08:49.734Z,0.47
2022-09-28T04:11:12.440Z,0.70
2022-09-28T04:13:37.100Z,0.40
2022-09-28T04:16:02.030Z,0.50
2022-09-28T04:18:30.023Z,0.52
2022-09-28T04:21:27.605Z,0.60
2022-09-28T04:23:58.160Z,0.50
2022-09-28T04:26:23.646Z,0.82
2022-09-28T04:29:06.832Z,0.63
2022-09-28T04:31:30.834Z,0.50
2022-09-28T04:33:53.839Z,0.83
2022-09-28T04:36:16.544Z,0.60
2022-09-28T04:38:52.393Z,0.60
2022-09-28T04:41:17.367Z,0.68
2022-09-28T04:43:39.912Z,0.70
2022-09-28T04:46:03.475Z,0.80
2022-09-28T04:48:32.604Z,0.85
2022-09-28T04:51:15.590Z,1.17
2022-09-28T04:53:38.484Z,1.00
2022-09-28T04:56:06.688Z,0.82
2022-09-28T04:58:30.266Z,1.00
2022-09-28T05:00:54.291Z,0.80
2022-09-28T05:03:37.082Z,0.80
2022-09-28T05:06:15.338Z,0.57
2022-09-28T05:08:40.791Z,0.60
2022-09-28T05:11:05.916Z,0.70
2022-09-28T05:13:29.521Z,0.60
2022-09-28T05:15:57.550Z,0.90
2022-09-28T05:18:23.073Z,1.58
2022-09-28T05:20:56.059Z,0.63
2022-09-28T05:23:19.244Z,0.60
2022-09-28T05:25:42.830Z,0.70
2022-09-28T05:28:12.691Z,0.80
2022-09-28T05:31:05.266Z,0.82
2022-09-28T05:33:47.840Z,0.90
2022-09-28T05:36:13.496Z,0.90
2022-09-28T05:38:38.324Z,1.00
2022-09-28T05:41:05.693Z,1.02
2022-09-28T05:43:29.236Z,1.00
2022-09-28T05:45:55.643Z,1.00
2022-09-28T05:48:19.085Z,1.07
2022-09-28T05:50:42.187Z,1.10
2022-09-28T05:53:08.293Z,1.08
2022-09-28T05:55:33.682Z,0.93
2022-09-28T05:58:05.475Z,1.13
2022-09-28T06:00:29.356Z,1.00
2022-09-28T06:03:00.244Z,1.17
2022-09-28T06:05:24.752Z,0.95
2022-09-28T06:07:48.464Z,1.10
2022-09-28T06:10:11.341Z,1.13
2022-09-28T06:12:37.996Z,0.80
2022-09-28T06:15:07.757Z,0.88
2022-09-28T06:17:30.475Z,0.85
2022-09-28T06:20:13.255Z,0.90
2022-09-28T06:23:05.155Z,0.90
2022-09-28T06:25:28.872Z,0.80
2022-09-28T06:27:59.538Z,0.70
2022-09-28T06:30:23.550Z,0.80
2022-09-28T06:32:46.252Z,0.80
2022-09-28T06:35:09.971Z,0.50
2022-09-28T06:37:33.196Z,0.70
2022-09-28T06:39:57.606Z,0.60
2022-09-28T06:42:20.614Z,0.52
2022-09-28T06:45:04.610Z,0.57
2022-09-28T06:47:53.084Z,0.70
2022-09-28T06:50:41.253Z,0.50
2022-09-28T06:53:23.784Z,0.70
2022-09-28T06:55:52.489Z,0.70
2022-09-28T06:58:17.565Z,0.60
2022-09-28T07:00:44.952Z,0.60
2022-09-28T07:03:11.962Z,0.67
2022-09-28T07:05:56.803Z,0.70
2022-09-28T07:09:00.472Z,0.70
2022-09-28T07:12:10.752Z,0.50
2022-09-28T07:14:56.176Z,0.70
2022-09-28T07:17:19.525Z,0.40
2022-09-28T07:19:44.595Z,0.50
2022-09-28T07:22:07.356Z,0.50
2022-09-28T07:24:30.356Z,0.70
2022-09-28T07:27:11.980Z,0.80
2022-09-28T07:29:53.438Z,0.60
2022-09-28T07:35:16.255Z,0.73
2022-09-28T07:37:43.118Z,0.60
2022-09-28T07:40:26.826Z,0.60
2022-09-28T07:42:49.764Z,0.60
2022-09-28T07:45:12.765Z,0.70
2022-09-28T07:47:57.150Z,0.68
2022-09-28T07:50:33.268Z,0.65
2022-09-28T07:53:03.000Z,0.90
2022-09-28T07:56:07.401Z,0.80
2022-09-28T07:58:39.802Z,1.00
2022-09-28T08:01:22.849Z,1.00
2022-09-28T08:03:48.017Z,0.80
2022-09-28T08:06:12.730Z,1.13
2022-09-28T08:08:36.099Z,1.30
2022-09-28T08:10:59.378Z,1.00
2022-09-28T08:13:41.512Z,1.05
2022-09-28T08:16:22.690Z,1.20
2022-09-28T08:19:08.514Z,1.10
2022-09-28T08:21:46.394Z,1.00
2022-09-28T08:24:09.657Z,0.80
2022-09-28T08:26:32.415Z,0.95
2022-09-28T08:28:55.014Z,1.00
2022-09-28T08:31:37.814Z,1.00
2022-09-28T08:34:13.880Z,1.27
2022-09-28T08:36:54.776Z,1.13
2022-09-28T08:39:36.949Z,1.17
2022-09-28T08:42:32.035Z,1.20
2022-09-28T08:45:35.080Z,1.08
2022-09-28T08:48:56.947Z,1.23
2022-09-28T08:51:55.216Z,1.10
2022-09-28T08:54:56.800Z,1.40
2022-09-28T08:57:37.188Z,1.10
2022-09-28T09:00:02.742Z,1.67
2022-09-28T09:02:36.166Z,1.40
2022-09-28T09:05:24.221Z,1.08
2022-09-28T09:08:25.447Z,1.20
2022-09-28T09:11:24.876Z,0.95
2022-09-28T09:14:08.999Z,1.27
2022-09-28T09:16:43.111Z,1.20
2022-09-28T09:19:26.998Z,1.65
2022-09-28T09:22:47.939Z,1.20
2022-09-28T09:25:38.762Z,1.30
2022-09-28T09:28:35.342Z,1.20
2022-09-28T09:31:22.886Z,0.80
2022-09-28T09:34:17.932Z,0.90
2022-09-28T09:37:04.254Z,1.30
2022-09-28T09:40:04.838Z,1.33
2022-09-28T09:43:31.725Z,0.90
2022-09-28T09:46:48.394Z,1.03
2022-09-28T09:49:23.330Z,1.00
2022-09-28T09:51:59.631Z,1.05
2022-09-28T09:54:30.281Z,1.10
2022-09-28T09:56:56.824Z,1.52
2022-09-28T09:59:43.110Z,1.00
2022-09-28T10:02:35.157Z,0.75
2022-09-28T10:05:11.009Z,0.93
2022-09-28T10:07:51.052Z,0.82
2022-09-28T10:10:35.807Z,1.00
2022-09-28T10:13:09.215Z,0.73
2022-09-28T10:15:35.451Z,1.10
2022-09-28T10:18:21.642Z,1.15
2022-09-28T10:21:03.464Z,1.00
2022-09-28T10:23:36.759Z,0.90
2022-09-28T10:26:07.467Z,0.80
2022-09-28T10:28:40.858Z,1.10
2022-09-28T10:31:42.505Z,0.80
2022-09-28T10:34:40.347Z,1.20
2022-09-28T10:37:13.022Z,0.80
2022-09-28T10:39:56.329Z,0.97
2022-09-28T10:42:27.213Z,0.90
2022-09-28T10:44:59.349Z,1.00
2022-09-28T10:47:32.827Z,0.93
2022-09-28T10:49:56.144Z,1.20
2022-09-28T10:52:40.453Z,1.10
2022-09-28T10:55:33.037Z,1.73
2022-09-28T10:57:56.515Z,1.50
2022-09-28T11:00:33.440Z,0.90
2022-09-28T11:03:52.027Z,1.17
2022-09-28T11:06:14.865Z,1.10
2022-09-28T11:08:39.616Z,1.80
2022-09-28T11:11:13.036Z,1.10
2022-09-28T11:13:41.434Z,1.00
2022-09-28T11:16:06.724Z,1.77
2022-09-28T11:18:34.696Z,1.00
2022-09-28T11:21:29.763Z,1.08
2022-09-28T11:24:02.102Z,1.05
2022-09-28T11:26:25.859Z,1.50
2022-09-28T11:28:53.244Z,1.15
2022-09-28T11:31:30.257Z,1.00
2022-09-28T11:34:27.786Z,0.88
2022-09-28T11:37:11.883Z,1.00
2022-09-28T11:39:54.474Z,0.90
2022-09-28T11:43:01.950Z,0.90
2022-09-28T11:45:49.654Z,1.30
2022-09-28T11:48:17.081Z,1.45
2022-09-28T11:50:47.334Z,1.10
2022-09-28T11:53:33.000Z,1.08
2022-09-28T11:56:08.915Z,1.48
2022-09-28T11:58:44.809Z,1.10
2022-09-28T12:01:36.145Z,1.10
2022-09-28T12:04:33.877Z,1.50
2022-09-28T12:07:03.746Z,1.40
2022-09-28T12:09:33.408Z,1.60
2022-09-28T12:12:24.116Z,1.43
2022-09-28T12:14:55.708Z,1.40
2022-09-28T12:18:00.891Z,1.40
2022-09-28T12:20:30.549Z,1.40
2022-09-28T12:23:21.236Z,1.65
2022-09-28T12:25:58.007Z,1.50
2022-09-28T12:28:41.426Z,1.20
2022-09-28T12:31:16.091Z,1.63
2022-09-28T12:33:46.431Z,1.40
2022-09-28T12:36:18.040Z,1.27
2022-09-28T12:39:17.530Z,1.30
2022-09-28T12:42:15.034Z,1.38
2022-09-28T12:45:02.426Z,1.30
2022-09-28T12:47:32.692Z,1.17
2022-09-28T12:53:31.147Z,0.90
2022-09-28T12:56:21.620Z,0.88
2022-09-28T12:58:59.965Z,1.13
2022-09-28T13:01:28.673Z,1.20
2022-09-28T13:04:09.223Z,1.10
2022-09-28T13:06:46.996Z,0.80
2022-09-28T13:09:19.886Z,0.60
2022-09-28T13:12:09.729Z,0.80
2022-09-28T13:15:01.932Z,0.80
2022-09-28T13:17:44.561Z,0.80
2022-09-28T13:20:13.157Z,0.60
2022-09-28T13:23:17.562Z,0.80
2022-09-28T13:25:45.130Z,0.63
2022-09-28T13:28:08.132Z,0.65
2022-09-28T13:30:34.958Z,0.45
2022-09-28T13:33:01.061Z,0.50
2022-09-28T13:35:24.191Z,0.60
2022-09-28T13:37:48.690Z,0.60
2022-09-28T13:40:11.675Z,0.60
2022-09-28T13:42:46.261Z,0.50
2022-09-28T13:45:20.916Z,0.50
2022-09-28T13:47:52.807Z,0.50
2022-09-28T13:50:43.771Z,0.40
2022-09-28T13:53:32.698Z,0.60
2022-09-28T13:56:36.036Z,0.63
2022-09-28T13:59:01.861Z,0.50
2022-09-28T14:01:40.188Z,0.50
2022-09-28T14:04:20.959Z,0.70
2022-09-28T14:06:55.784Z,0.60
2022-09-28T14:09:40.193Z,0.60
2022-09-28T14:12:23.667Z,0.70
2022-09-28T14:14:48.624Z,0.47
2022-09-28T14:17:26.125Z,0.80
2022-09-28T14:20:14.175Z,0.50
2022-09-28T14:22:56.255Z,0.50
2022-09-28T14:25:23.718Z,0.77
2022-09-28T14:28:01.349Z,0.60
2022-09-28T14:30:30.019Z,0.88
2022-09-28T14:32:56.532Z,0.60
2022-09-28T14:35:40.679Z,0.70
2022-09-28T14:38:38.199Z,0.83
2022-09-28T14:41:11.518Z,0.88
2022-09-28T14:43:34.439Z,0.80
2022-09-28T14:46:13.185Z,0.60
2022-09-28T14:48:50.966Z,0.60
2022-09-28T14:51:31.748Z,0.67
2022-09-28T14:54:21.694Z,0.60
2022-09-28T14:56:53.325Z,0.60
2022-09-28T14:59:25.115Z,0.93
2022-09-28T15:01:53.999Z,0.75
2022-09-28T15:04:17.401Z,0.50
2022-09-28T15:06:51.340Z,1.17
2022-09-28T15:09:35.117Z,0.80
2022-09-28T15:12:18.038Z,0.70
2022-09-28T15:15:17.442Z,0.68
2022-09-28T15:17:40.651Z,0.60
2022-09-28T15:20:24.423Z,0.60
2022-09-28T15:22:48.969Z,0.60
2022-09-28T15:25:31.952Z,0.70
2022-09-28T15:28:03.452Z,0.90
2022-09-28T15:30:31.996Z,0.50
2022-09-28T15:32:56.962Z,0.70
2022-09-28T15:35:22.542Z,0.60
2022-09-28T15:37:45.893Z,0.63
2022-09-28T15:40:15.397Z,0.50
2022-09-28T15:42:38.285Z,0.40
2022-09-28T15:45:26.838Z,0.50
2022-09-28T15:48:15.790Z,0.70
2022-09-28T15:50:44.608Z,0.57
2022-09-28T15:53:14.991Z,0.82
2022-09-28T15:55:41.664Z,0.80
2022-09-28T15:58:22.868Z,0.68
2022-09-28T16:00:48.754Z,0.50
2022-09-28T16:03:11.570Z,0.70
2022-09-28T16:05:49.476Z,0.60
2022-09-28T16:08:36.884Z,0.53
2022-09-28T16:11:20.819Z,0.70
2022-09-28T16:14:06.245Z,1.10
2022-09-28T16:16:48.421Z,0.90
2022-09-28T16:19:36.188Z,1.10
2022-09-28T16:22:03.912Z,1.70
2022-09-28T16:24:36.083Z,1.90
2022-09-28T16:27:05.233Z,1.30
2022-09-28T16:29:40.312Z,0.88
2022-09-28T16:32:27.523Z,0.80
2022-09-28T16:35:12.642Z,1.10
2022-09-28T16:37:35.971Z,1.08
2022-09-28T16:39:58.702Z,1.65
2022-09-28T16:42:21.434Z,1.10
2022-09-28T16:44:45.261Z,1.25
2022-09-28T16:47:07.978Z,1.10
2022-09-28T16:49:33.475Z,1.20
2022-09-28T16:51:56.147Z,1.30
2022-09-28T16:54:39.963Z,1.40
2022-09-28T16:57:05.028Z,1.20
2022-09-28T16:59:28.681Z,1.10
2022-09-28T17:01:51.531Z,1.20
2022-09-28T17:04:14.148Z,1.30
2022-09-28T17:06:37.209Z,1.30
2022-09-28T17:09:00.171Z,1.20
2022-09-28T17:11:24.926Z,1.10
2022-09-28T17:13:47.974Z,1.38
2022-09-28T17:16:28.255Z,1.25
2022-09-28T17:19:03.091Z,1.40
2022-09-28T17:21:26.193Z,1.60
2022-09-28T17:23:50.375Z,1.43
2022-09-28T17:26:33.495Z,1.40
2022-09-28T17:28:58.879Z,1.60
2022-09-28T17:31:21.542Z,1.33
2022-09-28T17:33:44.236Z,1.30
2022-09-28T17:36:07.292Z,1.30
2022-09-28T17:38:30.173Z,1.60
2022-09-28T17:40:52.909Z,1.40
2022-09-28T17:43:15.565Z,1.60
2022-09-28T17:45:41.120Z,1.40
2022-09-28T17:48:03.874Z,1.30
2022-09-28T17:50:29.838Z,1.48
2022-09-28T17:52:53.178Z,1.63
2022-09-28T17:55:15.760Z,1.67
2022-09-28T17:57:38.543Z,1.67
2022-09-28T18:00:01.379Z,1.53
2022-09-28T18:02:27.036Z,1.83
2022-09-28T18:04:52.224Z,1.80
2022-09-28T18:07:15.200Z,1.85
2022-09-28T18:09:37.863Z,1.85
2022-09-28T18:12:04.177Z,2.10
2022-09-28T18:14:27.134Z,2.25
2022-09-28T18:16:49.778Z,2.25
2022-09-28T18:19:15.240Z,1.90
2022-09-28T18:21:37.899Z,2.10
2022-09-28T18:24:00.653Z,2.10
2022-09-28T18:26:23.484Z,1.92
2022-09-28T18:29:06.546Z,2.13
2022-09-28T18:31:29.398Z,1.85
2022-09-28T18:34:00.046Z,2.30
2022-09-28T18:36:28.450Z,2.50
2022-09-28T18:38:51.277Z,2.47
2022-09-28T18:41:15.804Z,2.67
2022-09-28T18:43:38.591Z,3.05
2022-09-28T18:46:07.442Z,3.60
2022-09-28T18:48:29.994Z,3.90
2022-09-28T18:50:52.654Z,3.72
2022-09-28T18:53:15.490Z,4.20
2022-09-28T18:55:42.532Z,4.30
2022-09-28T18:58:06.569Z,3.80
2022-09-28T19:00:29.433Z,3.40
2022-09-28T19:02:52.224Z,3.60
2022-09-28T19:05:14.930Z,3.33
2022-09-28T19:07:37.510Z,3.28
2022-09-28T19:10:00.167Z,3.40
2022-09-28T19:12:23.845Z,3.27
2022-09-28T19:14:46.479Z,3.15
2022-09-28T19:17:10.034Z,3.70
2022-09-28T19:19:32.980Z,3.17
2022-09-28T19:21:56.303Z,3.00
2022-09-28T19:24:19.595Z,3.27
2022-09-28T19:26:42.714Z,3.20
2022-09-28T19:29:05.283Z,3.05
2022-09-28T19:31:29.276Z,5.05
2022-09-28T19:33:51.803Z,3.58
2022-09-28T19:36:18.250Z,2.80
2022-09-28T19:38:41.277Z,3.17
2022-09-28T19:41:40.888Z,2.90
2022-09-28T19:44:06.538Z,2.95
2022-09-28T19:46:31.227Z,3.42
2022-09-28T19:48:54.702Z,3.07
2022-09-28T19:51:17.551Z,3.47
2022-09-28T19:53:41.095Z,3.42
2022-09-28T19:56:05.605Z,3.80
2022-09-28T19:58:30.671Z,3.90
2022-09-28T20:00:54.420Z,3.50
2022-09-28T20:03:18.639Z,3.40
2022-09-28T20:05:42.428Z,3.70
2022-09-28T20:08:04.972Z,3.70
2022-09-28T20:10:27.488Z,4.05
2022-09-28T20:12:51.656Z,3.57
2022-09-28T20:15:14.672Z,4.10
2022-09-28T20:17:37.884Z,3.70
2022-09-28T20:20:00.771Z,3.72
2022-09-28T20:22:23.703Z,4.05
2022-09-28T20:24:46.641Z,3.90
2022-09-28T20:27:09.200Z,4.28
2022-09-28T20:29:33.203Z,4.10
2022-09-28T20:31:56.718Z,4.55
2022-09-28T20:34:19.349Z,4.63
2022-09-28T20:36:44.706Z,4.13
2022-09-28T20:39:07.170Z,4.07
2022-09-28T20:41:34.747Z,4.05
2022-09-28T20:44:04.117Z,4.00
2022-09-28T20:46:28.124Z,3.65
2022-09-28T20:48:51.369Z,3.70
2022-09-28T20:51:16.088Z,3.80
2022-09-28T20:53:40.040Z,3.88
2022-09-28T20:56:06.294Z,4.10
2022-09-28T20:58:29.039Z,4.32
2022-09-28T21:00:51.677Z,3.70
2022-09-28T21:03:14.185Z,3.97
2022-09-28T21:05:36.831Z,3.95
2022-09-28T21:07:59.262Z,4.05
2022-09-28T21:10:22.322Z,3.95
2022-09-28T21:12:50.258Z,3.73
2022-09-28T21:15:12.907Z,3.85
2022-09-28T21:17:35.848Z,4.05
2022-09-28T21:19:58.381Z,3.75
2022-09-28T21:22:20.953Z,3.88
2022-09-28T21:24:43.500Z,4.10
2022-09-28T21:27:06.294Z,3.92
2022-09-28T21:29:28.949Z,3.80
2022-09-28T21:31:51.369Z,4.10
2022-09-28T21:34:19.427Z,3.83
2022-09-28T21:36:43.592Z,4.10
2022-09-28T21:39:10.193Z,3.70
2022-09-28T21:41:33.073Z,3.65
2022-09-28T21:43:55.808Z,3.55
2022-09-28T21:46:18.553Z,3.95
2022-09-28T21:48:41.379Z,3.80
2022-09-28T21:51:06.358Z,3.38
2022-09-28T21:53:31.756Z,3.83
2022-09-28T21:55:55.796Z,3.33
2022-09-28T21:58:23.252Z,3.17
2022-09-28T22:00:45.721Z,3.50
2022-09-28T22:03:08.311Z,3.40
2022-09-28T22:05:30.928Z,3.83
2022-09-28T22:07:53.969Z,3.17
2022-09-28T22:10:16.432Z,3.85
2022-09-28T22:12:39.072Z,3.60
2022-09-28T22:15:02.035Z,3.85
2022-09-28T22:17:24.948Z,3.80
2022-09-28T22:19:47.536Z,3.70
2022-09-28T22:22:09.964Z,3.90
2022-09-28T22:24:32.501Z,3.90
2022-09-28T22:26:54.995Z,4.22
2022-09-28T22:29:18.134Z,4.65
2022-09-28T22:31:41.155Z,4.45
2022-09-28T22:34:04.656Z,4.30
2022-09-28T22:36:28.066Z,4.30
2022-09-28T22:38:50.561Z,4.43
2022-09-28T22:41:18.745Z,4.50
2022-09-28T22:43:42.892Z,4.22
2022-09-28T22:46:11.103Z,4.28
2022-09-28T22:48:34.830Z,3.93
2022-09-28T22:50:57.388Z,4.30
2022-09-28T22:53:19.842Z,3.78
2022-09-28T22:55:42.530Z,4.10
2022-09-28T22:58:05.056Z,4.28
2022-09-28T23:00:27.996Z,3.70
2022-09-28T23:02:50.504Z,3.72
2022-09-28T23:05:13.542Z,3.67
2022-09-28T23:07:36.156Z,3.58
2022-09-28T23:10:00.662Z,3.70
2022-09-28T23:12:23.125Z,3.63
2022-09-28T23:14:45.643Z,3.80
2022-09-28T23:17:08.143Z,3.80
2022-09-28T23:19:30.875Z,3.75
2022-09-28T23:21:54.062Z,3.95
2022-09-28T23:24:16.869Z,4.00
2022-09-28T23:26:39.419Z,4.20
2022-09-28T23:29:01.994Z,3.88
2022-09-28T23:31:34.668Z,3.92
2022-09-28T23:34:05.150Z,3.92
2022-09-28T23:36:28.533Z,4.30
2022-09-28T23:38:51.086Z,3.97
2022-09-28T23:41:13.698Z,3.78
2022-09-28T23:43:36.351Z,4.07
2022-09-28T23:45:58.874Z,3.67
2022-09-28T23:48:21.796Z,3.97
2022-09-28T23:50:45.086Z,3.88
2022-09-28T23:53:07.817Z,3.50
2022-09-28T23:55:30.450Z,3.90
2022-09-28T23:57:55.641Z,3.70
